SSA995 TTPP-KMIA
Flight info
| Callsign | SSA995 |
|---|---|
| Flight time | N/A |
| Altitude | 30000 |
| Route | DCT PERRY UG449 ANADA L452 HARBG Y330 FODED Y308 MADIZ VIICE2 |
| Aircraft | B739/M-VGDW/C |
Departure
| Time | N/A |
|---|---|
| Airport | Piarco International Airport (TTPP) |
Arrival
| Time | 2026-05-03 20:52 |
|---|---|
| Airport | Miami International Airport (KMIA) |
| Time | Latitude | Longitude | Altitude | Speed | Heading |
|---|---|---|---|---|---|
| 2026-05-03 20:15 | 24.18333 | -77.56783 | 30013 ft | 444 kts | 283° |
| 2026-05-03 20:15 | 24.20174 | -77.63245 | 30014 ft | 444 kts | 283° |
| 2026-05-03 20:16 | 24.22013 | -77.69710 | 30017 ft | 444 kts | 283° |
| 2026-05-03 20:16 | 24.23836 | -77.76129 | 30017 ft | 444 kts | 283° |
| 2026-05-03 20:17 | 24.25668 | -77.82592 | 30015 ft | 443 kts | 283° |
| 2026-05-03 20:17 | 24.27849 | -77.88924 | 30003 ft | 452 kts | 298° |
| 2026-05-03 20:18 | 24.31414 | -77.94577 | 30021 ft | 453 kts | 299° |
| 2026-05-03 20:18 | 24.34975 | -78.00285 | 30022 ft | 454 kts | 299° |
| 2026-05-03 20:19 | 24.38504 | -78.06019 | 30012 ft | 453 kts | 298° |
| 2026-05-03 20:19 | 24.42023 | -78.11764 | 30017 ft | 453 kts | 298° |
| 2026-05-03 20:20 | 24.45538 | -78.17509 | 30016 ft | 453 kts | 298° |
| 2026-05-03 20:20 | 24.49045 | -78.23247 | 30013 ft | 452 kts | 298° |
| 2026-05-03 20:21 | 24.52549 | -78.28986 | 30013 ft | 452 kts | 298° |
| 2026-05-03 20:21 | 24.56052 | -78.34729 | 30014 ft | 452 kts | 298° |
| 2026-05-03 20:22 | 24.59549 | -78.40469 | 30015 ft | 451 kts | 298° |
| 2026-05-03 20:22 | 24.63039 | -78.46203 | 30015 ft | 451 kts | 298° |
| 2026-05-03 20:23 | 24.66524 | -78.51937 | 30015 ft | 451 kts | 298° |
| 2026-05-03 20:23 | 24.69981 | -78.57632 | 30012 ft | 451 kts | 298° |
| 2026-05-03 20:24 | 24.73464 | -78.63375 | 30014 ft | 451 kts | 298° |
| 2026-05-03 20:24 | 24.75206 | -78.66252 | 29705 ft | 451 kts | 298° |
| 2026-05-03 20:24 | 24.76931 | -78.69096 | 29254 ft | 442 kts | 298° |
| 2026-05-03 20:24 | 24.78619 | -78.71880 | 28768 ft | 433 kts | 298° |
| 2026-05-03 20:25 | 24.80272 | -78.74610 | 28306 ft | 425 kts | 298° |
| 2026-05-03 20:25 | 24.81902 | -78.77301 | 27850 ft | 418 kts | 298° |
| 2026-05-03 20:25 | 24.83503 | -78.79949 | 27402 ft | 413 kts | 298° |
| 2026-05-03 20:25 | 24.85099 | -78.82593 | 26974 ft | 416 kts | 298° |
| 2026-05-03 20:26 | 24.86705 | -78.85260 | 26547 ft | 421 kts | 298° |
| 2026-05-03 20:26 | 24.88335 | -78.87970 | 26127 ft | 426 kts | 298° |
| 2026-05-03 20:26 | 24.89952 | -78.90651 | 25700 ft | 425 kts | 298° |
| 2026-05-03 20:26 | 24.91611 | -78.93394 | 25286 ft | 423 kts | 299° |
| 2026-05-03 20:27 | 24.93213 | -78.96045 | 24883 ft | 421 kts | 299° |
| 2026-05-03 20:27 | 24.94827 | -78.98724 | 24483 ft | 419 kts | 299° |
| 2026-05-03 20:27 | 24.96434 | -79.01392 | 24084 ft | 417 kts | 299° |
| 2026-05-03 20:27 | 24.98024 | -79.04035 | 23691 ft | 411 kts | 299° |
| 2026-05-03 20:28 | 24.99590 | -79.06639 | 23231 ft | 404 kts | 299° |
| 2026-05-03 20:28 | 25.01129 | -79.09198 | 22763 ft | 397 kts | 299° |
| 2026-05-03 20:28 | 25.02643 | -79.11718 | 22304 ft | 391 kts | 299° |
| 2026-05-03 20:28 | 25.04133 | -79.14198 | 21851 ft | 385 kts | 299° |
| 2026-05-03 20:29 | 25.05602 | -79.16646 | 21406 ft | 380 kts | 299° |
| 2026-05-03 20:29 | 25.07053 | -79.19064 | 20964 ft | 376 kts | 300° |
| 2026-05-03 20:29 | 25.08484 | -79.21452 | 20529 ft | 371 kts | 300° |
| 2026-05-03 20:29 | 25.09905 | -79.23824 | 20106 ft | 368 kts | 300° |
| 2026-05-03 20:30 | 25.11307 | -79.26167 | 19684 ft | 364 kts | 300° |
| 2026-05-03 20:30 | 25.12696 | -79.28489 | 19274 ft | 361 kts | 300° |
| 2026-05-03 20:30 | 25.14075 | -79.30794 | 18868 ft | 358 kts | 300° |
| 2026-05-03 20:30 | 25.15444 | -79.33086 | 18466 ft | 356 kts | 300° |
| 2026-05-03 20:31 | 25.16801 | -79.35357 | 18031 ft | 353 kts | 300° |
| 2026-05-03 20:31 | 25.18152 | -79.37619 | 17570 ft | 351 kts | 300° |
| 2026-05-03 20:31 | 25.19493 | -79.39864 | 17114 ft | 349 kts | 300° |
| 2026-05-03 20:31 | 25.20824 | -79.42095 | 16667 ft | 347 kts | 300° |
| 2026-05-03 20:32 | 25.22150 | -79.44315 | 16229 ft | 345 kts | 300° |
| 2026-05-03 20:32 | 25.23466 | -79.46522 | 15800 ft | 344 kts | 300° |
| 2026-05-03 20:32 | 25.24776 | -79.48721 | 15368 ft | 342 kts | 300° |
| 2026-05-03 20:32 | 25.26065 | -79.50884 | 15017 ft | 339 kts | 300° |
| 2026-05-03 20:33 | 25.27353 | -79.53046 | 14763 ft | 333 kts | 300° |
| 2026-05-03 20:33 | 25.28621 | -79.55176 | 14505 ft | 331 kts | 300° |
| 2026-05-03 20:33 | 25.29885 | -79.57303 | 14261 ft | 333 kts | 300° |
| 2026-05-03 20:33 | 25.31162 | -79.59453 | 14017 ft | 336 kts | 300° |
| 2026-05-03 20:34 | 25.32451 | -79.61622 | 13754 ft | 337 kts | 301° |
| 2026-05-03 20:34 | 25.33735 | -79.63783 | 13478 ft | 335 kts | 300° |
| 2026-05-03 20:34 | 25.35008 | -79.65926 | 13192 ft | 332 kts | 300° |
| 2026-05-03 20:34 | 25.36271 | -79.68054 | 13045 ft | 331 kts | 300° |
| 2026-05-03 20:35 | 25.37536 | -79.70187 | 13006 ft | 331 kts | 301° |
| 2026-05-03 20:35 | 25.38796 | -79.72310 | 13005 ft | 330 kts | 301° |
| 2026-05-03 20:35 | 25.40092 | -79.74408 | 13001 ft | 330 kts | 302° |
| 2026-05-03 20:35 | 25.41430 | -79.76476 | 13000 ft | 331 kts | 303° |
| 2026-05-03 20:36 | 25.42773 | -79.78539 | 12999 ft | 331 kts | 303° |
| 2026-05-03 20:36 | 25.44115 | -79.80610 | 12999 ft | 331 kts | 303° |
| 2026-05-03 20:36 | 25.45450 | -79.82682 | 12998 ft | 330 kts | 302° |
| 2026-05-03 20:36 | 25.46765 | -79.84731 | 13002 ft | 330 kts | 302° |
| 2026-05-03 20:37 | 25.48094 | -79.86804 | 13000 ft | 330 kts | 302° |
| 2026-05-03 20:37 | 25.49425 | -79.88881 | 12999 ft | 330 kts | 302° |
| 2026-05-03 20:37 | 25.50754 | -79.90957 | 13000 ft | 331 kts | 302° |
| 2026-05-03 20:37 | 25.52089 | -79.93042 | 12778 ft | 334 kts | 302° |
| 2026-05-03 20:38 | 25.53433 | -79.95143 | 12360 ft | 333 kts | 302° |
| 2026-05-03 20:38 | 25.54764 | -79.97223 | 11982 ft | 330 kts | 302° |
| 2026-05-03 20:38 | 25.56086 | -79.99291 | 11616 ft | 326 kts | 302° |
| 2026-05-03 20:38 | 25.57384 | -80.01320 | 11251 ft | 319 kts | 302° |
| 2026-05-03 20:39 | 25.58645 | -80.03292 | 11030 ft | 307 kts | 302° |
| 2026-05-03 20:39 | 25.59842 | -80.05164 | 11003 ft | 289 kts | 302° |
| 2026-05-03 20:39 | 25.60982 | -80.06950 | 10999 ft | 281 kts | 302° |
| 2026-05-03 20:39 | 25.62112 | -80.08723 | 11002 ft | 284 kts | 302° |
| 2026-05-03 20:40 | 25.63271 | -80.10545 | 10626 ft | 293 kts | 302° |
| 2026-05-03 20:40 | 25.64447 | -80.12393 | 10223 ft | 294 kts | 302° |
| 2026-05-03 20:40 | 25.65606 | -80.14258 | 9735 ft | 290 kts | 298° |
| 2026-05-03 20:40 | 25.66510 | -80.16222 | 9248 ft | 284 kts | 292° |
| 2026-05-03 20:41 | 25.67317 | -80.18215 | 8775 ft | 281 kts | 291° |
| 2026-05-03 20:41 | 25.68114 | -80.20165 | 8401 ft | 274 kts | 292° |
| 2026-05-03 20:41 | 25.68902 | -80.22067 | 8023 ft | 269 kts | 292° |
| 2026-05-03 20:41 | 25.69683 | -80.23927 | 7655 ft | 263 kts | 292° |
| 2026-05-03 20:42 | 25.70451 | -80.25742 | 7295 ft | 258 kts | 292° |
| 2026-05-03 20:42 | 25.71122 | -80.27558 | 6969 ft | 249 kts | 279° |
| 2026-05-03 20:42 | 25.71214 | -80.29404 | 6635 ft | 239 kts | 266° |
| 2026-05-03 20:42 | 25.71122 | -80.31215 | 6286 ft | 231 kts | 265° |
| 2026-05-03 20:43 | 25.71026 | -80.32963 | 5911 ft | 224 kts | 265° |
| 2026-05-03 20:43 | 25.70935 | -80.34687 | 5554 ft | 224 kts | 265° |
| 2026-05-03 20:43 | 25.70847 | -80.36410 | 5211 ft | 225 kts | 265° |
| 2026-05-03 20:43 | 25.70761 | -80.38162 | 4873 ft | 229 kts | 266° |
| 2026-05-03 20:44 | 25.70674 | -80.39925 | 4484 ft | 229 kts | 266° |
| 2026-05-03 20:44 | 25.70587 | -80.41681 | 4093 ft | 225 kts | 266° |
| 2026-05-03 20:44 | 25.70505 | -80.43404 | 3719 ft | 223 kts | 266° |
| 2026-05-03 20:44 | 25.70384 | -80.45116 | 3356 ft | 223 kts | 265° |
| 2026-05-03 20:45 | 25.70248 | -80.46837 | 3064 ft | 222 kts | 265° |
| 2026-05-03 20:45 | 25.70117 | -80.48545 | 3029 ft | 222 kts | 265° |
| 2026-05-03 20:45 | 25.69986 | -80.50259 | 3014 ft | 223 kts | 265° |
| 2026-05-03 20:45 | 25.69853 | -80.51985 | 3017 ft | 227 kts | 264° |
| 2026-05-03 20:46 | 25.70055 | -80.53697 | 2996 ft | 223 kts | 297° |
| 2026-05-03 20:46 | 25.71130 | -80.54800 | 2998 ft | 207 kts | 336° |
| 2026-05-03 20:46 | 25.72455 | -80.55143 | 3010 ft | 193 kts | 351° |
| 2026-05-03 20:46 | 25.73808 | -80.55283 | 3014 ft | 195 kts | 352° |
| 2026-05-03 20:47 | 25.75159 | -80.55325 | 2990 ft | 194 kts | 11° |
| 2026-05-03 20:47 | 25.76328 | -80.54634 | 3016 ft | 195 kts | 41° |
| 2026-05-03 20:47 | 25.77290 | -80.53389 | 3046 ft | 229 kts | 52° |
| 2026-05-03 20:47 | 25.78082 | -80.51820 | 2988 ft | 237 kts | 77° |
| 2026-05-03 20:48 | 25.78082 | -80.50017 | 3015 ft | 234 kts | 95° |
| 2026-05-03 20:48 | 25.77981 | -80.48218 | 2926 ft | 234 kts | 92° |
| 2026-05-03 20:48 | 25.78002 | -80.46401 | 2692 ft | 238 kts | 88° |
| 2026-05-03 20:48 | 25.78078 | -80.44551 | 2370 ft | 242 kts | 86° |
| 2026-05-03 20:49 | 25.78157 | -80.42683 | 2015 ft | 241 kts | 87° |
| 2026-05-03 20:49 | 25.78230 | -80.40855 | 1724 ft | 233 kts | 87° |
| 2026-05-03 20:49 | 25.78301 | -80.39110 | 1416 ft | 225 kts | 87° |
| 2026-05-03 20:49 | 25.78370 | -80.37392 | 1129 ft | 215 kts | 87° |
| 2026-05-03 20:50 | 25.78434 | -80.35775 | 871 ft | 204 kts | 86° |
| 2026-05-03 20:50 | 25.78497 | -80.34250 | 603 ft | 192 kts | 86° |
| 2026-05-03 20:50 | 25.78553 | -80.32848 | 358 ft | 178 kts | 85° |
| 2026-05-03 20:50 | 25.78608 | -80.31527 | 126 ft | 167 kts | 85° |
| 2026-05-03 20:51 | 25.78663 | -80.30274 | 24 ft | 157 kts | 84° |
| 2026-05-03 20:51 | 25.78710 | -80.29171 | 18 ft | 121 kts | 86° |
| 2026-05-03 20:51 | 25.78736 | -80.28444 | 16 ft | 70 kts | 86° |
| 2026-05-03 20:51 | 25.78756 | -80.28022 | 17 ft | 50 kts | 87° |
| 2026-05-03 20:52 | 25.78771 | -80.27729 | 18 ft | 20 kts | 86° |
| 2026-05-03 20:52 | 25.78832 | -80.27660 | 17 ft | 14 kts | 343° |
| 2026-05-03 20:52 | 25.78875 | -80.27740 | 18 ft | 9 kts | 284° |
| 2026-05-03 20:52 | 25.78878 | -80.27777 | 17 ft | 3 kts | 270° |
| 2026-05-03 20:53 | 25.78880 | -80.27800 | 18 ft | 3 kts | 281° |
| 2026-05-03 20:53 | 25.78887 | -80.27822 | 20 ft | 3 kts | 293° |
| 2026-05-03 20:53 | 25.78896 | -80.27841 | 20 ft | 3 kts | 298° |
| 2026-05-03 20:53 | 25.78923 | -80.27896 | 20 ft | 12 kts | 299° |
| 2026-05-03 20:54 | 25.78951 | -80.27949 | 21 ft | 12 kts | 301° |
| 2026-05-03 20:54 | 25.79042 | -80.28131 | 21 ft | 11 kts | 298° |
| 2026-05-03 20:54 | 25.79079 | -80.28204 | 22 ft | 11 kts | 299° |
| 2026-05-03 20:55 | 25.79106 | -80.28251 | 22 ft | 11 kts | 307° |
| 2026-05-03 20:55 | 25.79147 | -80.28321 | 20 ft | 12 kts | 298° |
| 2026-05-03 20:55 | 25.79198 | -80.28395 | 18 ft | 12 kts | 323° |
| 2026-05-03 20:55 | 25.79263 | -80.28490 | 17 ft | 12 kts | 300° |
| 2026-05-03 20:56 | 25.79316 | -80.28555 | 18 ft | 11 kts | 332° |
| 2026-05-03 20:56 | 25.79367 | -80.28567 | 17 ft | 11 kts | 358° |
| 2026-05-03 20:56 | 25.79443 | -80.28570 | 18 ft | 11 kts | 357° |
| 2026-05-03 20:56 | 25.79516 | -80.28575 | 18 ft | 10 kts | 356° |
| 2026-05-03 20:57 | 25.79585 | -80.28575 | 19 ft | 9 kts | 12° |
| 2026-05-03 20:57 | 25.79620 | -80.28519 | 21 ft | 9 kts | 76° |
| 2026-05-03 20:57 | 25.79625 | -80.28449 | 18 ft | 9 kts | 88° |
| 2026-05-03 20:57 | 25.79628 | -80.28381 | 19 ft | 9 kts | 87° |
| 2026-05-03 20:58 | 25.79631 | -80.28315 | 18 ft | 8 kts | 88° |
| 2026-05-03 20:58 | 25.79634 | -80.28251 | 18 ft | 8 kts | 87° |
| 2026-05-03 20:58 | 25.79636 | -80.28189 | 19 ft | 8 kts | 89° |
| 2026-05-03 20:58 | 25.79618 | -80.28153 | 20 ft | 5 kts | 162° |
| 2026-05-03 20:59 | 25.79585 | -80.28153 | 20 ft | 4 kts | 182° |
| 2026-05-03 20:59 | 25.79565 | -80.28154 | 20 ft | 1 kts | 182° |
| 2026-05-03 20:59 | 25.79564 | -80.28154 | 20 ft | 0 kts | 182° |